Welkom op de website van Weerstation Hoek van Holland.
Het weer levert geen direct gevaar op.    Er zijn geen waarschuwingen afgegeven.

Onweer radar Meer informatie blitzortung!


Regen radar Meer informatie rain snow radar



METAR rapporten vliegvelden

   
EHRD - Rotterdam International Airport, NL
Afstand tot: Oost 31 km
Gewijzigd: 22-10-2018 00:55
Nevel, Bewolking  
Nevel, Bewolking  
   Wind: Westen 5.6 km/h
Wind: Westen 5.6 km/h
Temperatuur: 14°C
Dauwpunt: 12°C
Vochtigheid: 88%
Barometer: 1026 hPa
Bewolking: Overcast
Zicht: 5 km
Bewolking: Gedeeltelijk bewolkt 1500 ft,
Grotendeels bewolkt 2000 ft,
Bewolking 2400 ft
EHRD 212255Z AUTO 26003KT 5000 BR SCT015 BKN020 OVC024 14/12 Q1026 BECMG 30008KT TEMPO 4000 BR
EHAM - Amsterdam Schiphol, NL
Afstand tot: Noord 17 km
Gewijzigd: 22-10-2018 00:55
Grotendeels bewolkt  
Grotendeels bewolkt  
   Wind: varieert 1.9 km/h
Wind: varieert 1.9 km/h
Temperatuur: 11°C
Dauwpunt: 10°C
Vochtigheid: 94%
Barometer: 1026 hPa
Bewolking: Mostly Cloudy
Zicht: 8 km
Bewolking: Licht bewolkt 1100 ft,
Gedeeltelijk bewolkt 1600 ft,
Grotendeels bewolkt 2000 ft
EHAM 212255Z VRB01KT 8000 FEW011 SCT016 BKN020 11/10 Q1026 BECMG 30008KT BKN014 TEMPO 6000
EBAW - Antwerpen/Deurne, B
Afstand tot: Zuid 138 km
Gewijzigd: 22-10-2018 00:50
Helder  
Helder  
   Wind: Kalm
Wind: Kalm
Temperatuur: 10°C
Dauwpunt: 8°C
Vochtigheid: 88%
Barometer: 1027 hPa
Bewolking: Clear
Zicht: 8 km
Bewolking: Helder ft
EBAW 212250Z AUTO 00000KT 8000 // NCD 10/08 Q1027
EHEH - Eindhoven, NL
Afstand tot: OZO 140 km
Gewijzigd: 22-10-2018 00:55
Grotendeels bewolkt  
Grotendeels bewolkt  
   Wind: ZW 3.7 km/h
Wind: ZW 3.7 km/h
Temperatuur: 9°C
Dauwpunt: 7°C
Vochtigheid: 87%
Barometer: 1027 hPa
Bewolking: Mostly Cloudy
Zicht: meer dan 10 km
Bewolking: Grotendeels bewolkt 4700 ft,
Grotendeels bewolkt 36000 ft
EHEH 212255Z AUTO 23002KT 9999 BKN047 BKN360 09/07 Q1027 BLU
  

Script ontwikkeld door  Saratoga-weather.org Aangepast voor de template door  Weerstation Leuven

Apparatuur in gebruik:

Weerstation
Davis VP2

Weerprogramma
Meteobridge

Weercomputer
meteobridge met meteostick

Webleverancier
Strato

Davis VP2

Meteobridge

meteobridge met meteostick

Strato